createdAt,value
2019-05-10T00:00:54.573Z,10.77
2019-05-10T00:03:40.570Z,10.68
2019-05-10T00:06:26.962Z,10.48
2019-05-10T00:08:54.703Z,10.61
2019-05-10T00:11:30.703Z,10.59
2019-05-10T00:14:03.894Z,10.76
2019-05-10T00:16:32.481Z,10.61
2019-05-10T00:19:00.963Z,10.59
2019-05-10T00:21:29.546Z,10.55
2019-05-10T00:23:58.025Z,9.89
2019-05-10T00:26:26.539Z,9.81
2019-05-10T00:28:55.090Z,9.41
2019-05-10T00:31:23.600Z,9.71
2019-05-10T00:33:52.183Z,9.79
2019-05-10T00:36:20.669Z,10.16
2019-05-10T00:38:49.235Z,10.27
2019-05-10T00:41:17.790Z,10.23
2019-05-10T00:43:46.329Z,9.97
2019-05-10T00:46:14.791Z,9.83
2019-05-10T00:48:43.309Z,9.79
2019-05-10T00:51:11.863Z,9.61
2019-05-10T00:53:40.363Z,10.12
2019-05-10T00:56:08.924Z,10.16
2019-05-10T00:58:37.425Z,10.33
2019-05-10T01:01:05.984Z,10.64
2019-05-10T01:03:34.503Z,10.75
2019-05-10T01:06:03.068Z,10.76
2019-05-10T01:08:31.531Z,10.56
2019-05-10T01:11:00.115Z,10.73
2019-05-10T01:13:28.614Z,10.52
2019-05-10T01:15:57.203Z,10.61
2019-05-10T01:18:25.729Z,10.66
2019-05-10T01:20:54.210Z,10.73
2019-05-10T01:23:22.730Z,10.34
2019-05-10T01:25:51.210Z,10.45
2019-05-10T01:28:19.706Z,10.49
2019-05-10T01:30:48.260Z,10.66
2019-05-10T01:33:16.770Z,10.66
2019-05-10T01:35:45.335Z,10.46
2019-05-10T01:38:13.822Z,10.60
2019-05-10T01:40:42.320Z,10.67
2019-05-10T01:43:10.804Z,10.69
2019-05-10T01:45:39.289Z,10.72
2019-05-10T01:48:07.792Z,10.60
2019-05-10T01:50:36.273Z,10.39
2019-05-10T01:53:04.776Z,10.52
2019-05-10T01:55:33.266Z,10.39
2019-05-10T01:58:01.794Z,10.60
2019-05-10T02:00:30.735Z,10.73
2019-05-10T02:02:59.259Z,10.69
2019-05-10T02:05:27.745Z,10.65
2019-05-10T02:07:56.261Z,10.70
2019-05-10T02:10:24.771Z,10.66
2019-05-10T02:12:53.365Z,10.70
2019-05-10T02:15:21.946Z,10.76
2019-05-10T02:17:50.430Z,10.64
2019-05-10T02:20:18.945Z,10.25
2019-05-10T02:22:47.431Z,10.13
2019-05-10T02:25:16.158Z,10.16
2019-05-10T02:27:44.650Z,10.12
2019-05-10T02:30:14.678Z,10.17
2019-05-10T02:32:43.194Z,10.17
2019-05-10T02:35:11.923Z,10.03
2019-05-10T02:37:40.506Z,10.15
2019-05-10T02:40:09.532Z,10.27
2019-05-10T02:42:38.170Z,10.37
2019-05-10T02:45:08.405Z,10.51
2019-05-10T02:47:36.892Z,10.33
2019-05-10T02:50:08.359Z,10.36
2019-05-10T02:52:36.867Z,10.50
2019-05-10T02:55:07.073Z,10.45
2019-05-10T02:57:37.605Z,10.44
2019-05-10T03:00:07.738Z,10.49
2019-05-10T03:02:37.892Z,10.59
2019-05-10T03:05:07.537Z,10.43
2019-05-10T03:07:38.233Z,10.28
2019-05-10T03:10:09.425Z,10.14
2019-05-10T03:12:38.704Z,9.99
2019-05-10T03:15:07.723Z,10.22
2019-05-10T03:17:38.417Z,10.35
2019-05-10T03:20:07.250Z,10.35
2019-05-10T03:22:38.788Z,10.34
2019-05-10T03:25:06.932Z,10.36
2019-05-10T03:27:35.729Z,10.46
2019-05-10T03:30:05.528Z,10.71
2019-05-10T03:32:34.113Z,10.63
2019-05-10T03:35:02.743Z,10.50
2019-05-10T03:37:31.685Z,10.71
2019-05-10T03:40:00.182Z,10.73
2019-05-10T03:42:28.737Z,10.84
2019-05-10T03:44:57.234Z,10.99
2019-05-10T03:47:25.783Z,10.89
2019-05-10T03:49:54.297Z,10.88
2019-05-10T03:52:22.782Z,10.88
2019-05-10T03:54:51.373Z,11.08
2019-05-10T03:57:19.860Z,11.22
2019-05-10T03:59:48.351Z,10.86
2019-05-10T04:02:16.938Z,11.00
2019-05-10T04:04:45.430Z,11.20
2019-05-10T04:07:13.965Z,11.28
2019-05-10T04:09:42.548Z,11.41
2019-05-10T04:12:11.115Z,11.59
2019-05-10T04:14:39.603Z,11.53
2019-05-10T04:17:08.101Z,11.62
2019-05-10T04:19:36.786Z,11.61
2019-05-10T04:22:05.272Z,11.53
2019-05-10T04:24:36.454Z,11.76
2019-05-10T04:27:05.034Z,11.88
2019-05-10T04:29:33.553Z,11.77
2019-05-10T04:32:02.050Z,11.80
2019-05-10T04:34:30.556Z,11.94
2019-05-10T04:36:59.059Z,12.08
2019-05-10T04:39:27.549Z,11.97
2019-05-10T04:41:56.080Z,11.89
2019-05-10T04:44:24.573Z,11.75
2019-05-10T04:46:53.073Z,11.95
2019-05-10T04:49:21.567Z,11.92
2019-05-10T04:51:50.082Z,11.67
2019-05-10T04:54:18.573Z,11.44
2019-05-10T04:56:47.162Z,11.63
2019-05-10T04:59:15.636Z,11.76
2019-05-10T05:01:44.180Z,11.81
2019-05-10T05:04:12.643Z,11.68
2019-05-10T05:06:41.144Z,11.75
2019-05-10T05:09:10.774Z,11.75
2019-05-10T05:11:39.288Z,12.21
2019-05-10T05:14:09.695Z,12.40
2019-05-10T05:16:38.004Z,12.14
2019-05-10T05:19:06.497Z,11.90
2019-05-10T05:21:35.003Z,11.96
2019-05-10T05:24:03.514Z,11.77
2019-05-10T05:26:32.006Z,11.50
2019-05-10T05:29:00.514Z,11.82
2019-05-10T05:31:29.029Z,12.06
2019-05-10T05:33:59.138Z,11.95
2019-05-10T05:36:27.743Z,12.14
2019-05-10T05:38:56.232Z,12.21
2019-05-10T05:41:24.719Z,12.19
2019-05-10T05:43:53.229Z,12.18
2019-05-10T05:46:21.779Z,12.91
2019-05-10T05:48:51.562Z,13.16
2019-05-10T05:51:20.250Z,13.28
2019-05-10T05:53:48.791Z,13.19
2019-05-10T05:56:17.337Z,13.64
2019-05-10T05:58:47.099Z,14.23
2019-05-10T06:01:24.693Z,14.06
2019-05-10T06:03:45.997Z,14.07
2019-05-10T06:06:21.239Z,14.00
2019-05-10T06:08:44.800Z,14.20
2019-05-10T06:11:13.385Z,13.68
2019-05-10T06:13:41.884Z,13.80
2019-05-10T06:16:12.906Z,13.79
2019-05-10T06:18:41.730Z,13.69
2019-05-10T06:21:10.823Z,13.76
2019-05-10T06:23:39.321Z,14.07
2019-05-10T06:26:21.398Z,13.52
2019-05-10T06:28:57.881Z,13.12
2019-05-10T06:31:08.475Z,13.39
2019-05-10T06:33:39.630Z,13.83
2019-05-10T06:36:07.275Z,13.85
2019-05-10T06:38:35.833Z,13.73
2019-05-10T06:41:10.190Z,14.06
2019-05-10T06:43:35.242Z,14.01
2019-05-10T06:46:05.191Z,14.21
2019-05-10T06:48:33.863Z,14.42
2019-05-10T06:51:03.040Z,14.72
2019-05-10T06:53:32.593Z,14.34
2019-05-10T06:56:01.115Z,14.64
2019-05-10T06:58:30.589Z,14.45
2019-05-10T07:00:59.851Z,14.33
2019-05-10T07:03:28.375Z,14.15
2019-05-10T07:05:56.876Z,14.19
2019-05-10T07:08:25.490Z,13.98
2019-05-10T07:10:53.968Z,14.14
2019-05-10T07:13:22.487Z,14.07
2019-05-10T07:15:51.574Z,14.25
2019-05-10T07:18:22.710Z,14.37
2019-05-10T07:20:50.316Z,14.08
2019-05-10T07:23:18.798Z,13.76
2019-05-10T07:25:47.328Z,14.06
2019-05-10T07:28:17.640Z,14.68
2019-05-10T07:30:46.287Z,14.71
2019-05-10T07:33:14.837Z,14.69
2019-05-10T07:35:43.356Z,15.35
2019-05-10T07:38:11.839Z,14.81
2019-05-10T07:40:40.342Z,15.75
2019-05-10T07:43:08.834Z,15.60
2019-05-10T07:45:37.332Z,15.43
2019-05-10T07:48:08.319Z,15.04
2019-05-10T07:50:36.081Z,15.32
2019-05-10T07:53:06.275Z,15.43
2019-05-10T07:55:34.759Z,15.33
2019-05-10T07:58:05.024Z,15.79
2019-05-10T08:00:37.959Z,16.43
2019-05-10T08:03:13.114Z,15.86
2019-05-10T08:05:34.707Z,15.91
2019-05-10T08:08:03.538Z,16.48
2019-05-10T08:10:32.089Z,16.00
2019-05-10T08:13:03.586Z,15.78
2019-05-10T08:15:34.730Z,16.42
2019-05-10T08:18:01.048Z,16.97
2019-05-10T08:20:45.724Z,17.51
2019-05-10T08:22:59.846Z,17.45
2019-05-10T08:25:35.429Z,17.60
2019-05-10T08:27:58.625Z,16.99
2019-05-10T08:30:42.532Z,16.99
2019-05-10T08:33:09.635Z,16.41
2019-05-10T08:35:38.934Z,16.42
2019-05-10T08:38:07.660Z,16.15
2019-05-10T08:40:38.040Z,17.11
2019-05-10T08:43:08.898Z,17.56
2019-05-10T08:45:38.739Z,17.47
2019-05-10T08:48:07.329Z,17.25
2019-05-10T08:50:49.522Z,18.17
2019-05-10T08:53:10.943Z,18.32
2019-05-10T08:55:36.338Z,18.94
2019-05-10T08:58:05.055Z,18.71
2019-05-10T09:00:48.860Z,18.61
2019-05-10T09:03:09.554Z,19.48
2019-05-10T09:05:34.901Z,20.67
2019-05-10T09:08:05.761Z,20.46
2019-05-10T09:10:34.229Z,20.35
2019-05-10T09:13:03.464Z,20.61
2019-05-10T09:15:33.076Z,20.30
2019-05-10T09:18:05.289Z,21.21
2019-05-10T09:20:32.129Z,20.92
2019-05-10T09:23:02.470Z,19.90
2019-05-10T09:25:33.617Z,19.81
2019-05-10T09:28:02.472Z,20.21
2019-05-10T09:30:36.579Z,19.97
2019-05-10T09:33:10.461Z,20.30
2019-05-10T09:35:38.790Z,19.94
2019-05-10T09:38:06.232Z,20.81
2019-05-10T09:40:34.787Z,20.86
2019-05-10T09:43:07.400Z,20.59
2019-05-10T09:45:33.758Z,20.40
2019-05-10T09:48:02.626Z,19.68
2019-05-10T09:50:41.224Z,20.03
2019-05-10T09:53:01.568Z,19.60
2019-05-10T09:55:30.049Z,18.59
2019-05-10T09:57:58.571Z,18.94
2019-05-10T10:00:37.817Z,17.81
2019-05-10T10:03:08.182Z,16.96
2019-05-10T10:05:39.785Z,16.65
2019-05-10T10:08:09.594Z,16.74
2019-05-10T10:10:37.134Z,16.64
2019-05-10T10:13:13.243Z,16.65
2019-05-10T10:15:37.723Z,16.52
2019-05-10T10:18:06.448Z,16.52
2019-05-10T10:20:43.013Z,16.53
2019-05-10T10:23:07.368Z,16.78
2019-05-10T10:25:40.804Z,17.27
2019-05-10T10:28:10.353Z,17.71
2019-05-10T10:30:37.424Z,17.56
2019-05-10T10:33:11.492Z,16.97
2019-05-10T10:35:37.870Z,16.85
2019-05-10T10:38:07.976Z,16.44
2019-05-10T10:40:44.134Z,17.05
2019-05-10T10:43:07.719Z,17.43
2019-05-10T10:45:37.709Z,16.96
2019-05-10T10:48:10.589Z,17.00
2019-05-10T10:50:36.623Z,16.82
2019-05-10T10:53:07.756Z,17.00
2019-05-10T10:55:39.383Z,16.94
2019-05-10T10:58:07.403Z,17.64
2019-05-10T11:00:38.958Z,17.43
2019-05-10T11:03:07.497Z,17.16
2019-05-10T11:05:36.006Z,17.36
2019-05-10T11:08:05.059Z,16.87
2019-05-10T11:10:33.704Z,17.45
2019-05-10T11:13:10.027Z,17.13
2019-05-10T11:15:35.972Z,16.84
2019-05-10T11:18:02.705Z,16.50
2019-05-10T11:20:31.929Z,16.94
2019-05-10T11:23:00.643Z,17.25
2019-05-10T11:25:29.246Z,17.16
2019-05-10T11:27:59.302Z,17.35
2019-05-10T11:30:28.051Z,17.65
2019-05-10T11:32:56.542Z,17.92
2019-05-10T11:35:30.547Z,18.08
2019-05-10T11:37:55.362Z,18.42
2019-05-10T11:40:30.879Z,17.80
2019-05-10T11:42:54.173Z,16.89
2019-05-10T11:45:26.273Z,16.62
2019-05-10T11:47:59.075Z,16.19
2019-05-10T11:50:34.932Z,16.89
2019-05-10T11:53:01.006Z,17.57
2019-05-10T11:55:30.928Z,18.01
2019-05-10T11:58:03.037Z,17.98
2019-05-10T12:00:34.081Z,17.92
2019-05-10T12:03:07.889Z,17.97
2019-05-10T12:05:32.062Z,17.59
2019-05-10T12:08:02.182Z,17.21
2019-05-10T12:10:32.005Z,17.22
2019-05-10T12:13:11.333Z,17.35
2019-05-10T12:15:31.957Z,17.04
2019-05-10T12:18:04.545Z,16.61
2019-05-10T12:20:41.694Z,16.47
2019-05-10T12:23:03.369Z,15.68
2019-05-10T12:25:46.351Z,15.27
2019-05-10T12:28:01.571Z,15.60
2019-05-10T12:30:34.854Z,15.59
2019-05-10T12:33:08.964Z,15.28
2019-05-10T12:35:35.690Z,14.99
2019-05-10T12:38:01.679Z,15.11
2019-05-10T12:40:31.429Z,14.91
2019-05-10T12:43:00.684Z,14.58
2019-05-10T12:45:31.367Z,14.50
2019-05-10T12:48:01.292Z,14.70
2019-05-10T12:50:29.814Z,14.97
2019-05-10T12:53:10.078Z,15.43
2019-05-10T12:55:29.467Z,15.43
2019-05-10T12:57:57.967Z,15.48
2019-05-10T13:00:26.531Z,15.62
2019-05-10T13:03:10.282Z,15.18
2019-05-10T13:05:32.122Z,14.89
2019-05-10T13:07:55.505Z,15.41
2019-05-10T13:10:24.073Z,15.23
2019-05-10T13:12:52.584Z,15.56
2019-05-10T13:15:24.651Z,15.27
2019-05-10T13:17:53.063Z,15.20
2019-05-10T13:20:22.460Z,15.64
2019-05-10T13:22:50.972Z,15.31
2019-05-10T13:25:19.516Z,15.74
2019-05-10T13:27:48.035Z,15.69
2019-05-10T13:30:27.045Z,16.00
2019-05-10T13:32:52.777Z,17.00
2019-05-10T13:35:18.344Z,17.32
2019-05-10T13:37:46.851Z,17.74
2019-05-10T13:40:16.081Z,18.19
2019-05-10T13:42:45.994Z,18.62
2019-05-10T13:45:15.210Z,19.03
2019-05-10T13:47:43.719Z,19.08
2019-05-10T13:50:12.480Z,18.32
2019-05-10T13:52:41.504Z,18.15
2019-05-10T13:55:10.263Z,18.05
2019-05-10T13:57:38.787Z,18.24
2019-05-10T14:00:08.634Z,17.47
2019-05-10T14:02:37.156Z,18.01
2019-05-10T14:05:06.687Z,17.31
2019-05-10T14:07:35.182Z,16.83
2019-05-10T14:10:04.840Z,16.89
2019-05-10T14:12:33.896Z,16.93
2019-05-10T14:15:08.342Z,16.81
2019-05-10T14:17:32.626Z,16.90
2019-05-10T14:20:01.122Z,16.43
2019-05-10T14:22:29.668Z,16.72
2019-05-10T14:24:59.171Z,16.44
2019-05-10T14:27:29.765Z,16.37
2019-05-10T14:29:59.196Z,16.76
2019-05-10T14:32:27.675Z,16.68
2019-05-10T14:34:56.178Z,16.67
2019-05-10T14:37:24.694Z,17.06
2019-05-10T14:39:53.187Z,17.16
2019-05-10T14:42:23.810Z,17.23
2019-05-10T14:44:51.926Z,18.11
2019-05-10T14:47:20.397Z,17.99
2019-05-10T14:49:48.887Z,18.17
2019-05-10T14:52:17.396Z,18.34
2019-05-10T14:54:49.855Z,18.32
2019-05-10T14:57:17.201Z,17.79
2019-05-10T14:59:56.709Z,17.78
2019-05-10T15:02:25.475Z,17.89
2019-05-10T15:04:53.977Z,17.73
2019-05-10T15:07:22.477Z,17.57
2019-05-10T15:09:54.312Z,17.88
2019-05-10T15:12:22.743Z,17.88
2019-05-10T15:14:51.495Z,18.41
2019-05-10T15:17:20.439Z,18.55
2019-05-10T15:19:57.084Z,18.36
2019-05-10T15:22:22.990Z,17.82
2019-05-10T15:24:49.550Z,17.97
2019-05-10T15:27:21.825Z,17.88
2019-05-10T15:29:48.382Z,18.16
2019-05-10T15:32:16.936Z,17.89
2019-05-10T15:35:04.305Z,17.62
2019-05-10T15:37:18.005Z,17.67
2019-05-10T15:39:46.503Z,17.92
2019-05-10T15:42:14.998Z,17.92
2019-05-10T15:44:43.487Z,17.99
2019-05-10T15:47:14.532Z,18.48
2019-05-10T15:49:42.239Z,18.46
2019-05-10T15:52:17.563Z,18.55
2019-05-10T15:54:44.596Z,18.33
2019-05-10T15:57:14.449Z,18.22
2019-05-10T15:59:41.785Z,18.39
2019-05-10T16:02:10.348Z,18.21
2019-05-10T16:04:38.862Z,17.17
2019-05-10T16:07:09.343Z,17.72
2019-05-10T16:09:37.691Z,17.46
2019-05-10T16:12:08.720Z,17.35
2019-05-10T16:14:39.207Z,17.36
2019-05-10T16:19:41.244Z,17.98
2019-05-10T16:22:09.762Z,17.64
2019-05-10T16:24:38.288Z,17.63
2019-05-10T16:27:08.344Z,17.87
2019-05-10T16:29:43.385Z,17.82
2019-05-10T16:32:15.390Z,17.19
2019-05-10T16:34:44.371Z,17.42
2019-05-10T16:37:13.021Z,17.58
2019-05-10T16:39:43.284Z,18.20
2019-05-10T16:42:18.735Z,18.53
2019-05-10T16:45:00.412Z,18.36
2019-05-10T16:47:29.199Z,17.91
2019-05-10T16:49:57.743Z,17.91
2019-05-10T16:52:27.940Z,17.89
2019-05-10T16:57:22.938Z,17.55
2019-05-10T16:59:51.453Z,17.62
2019-05-10T17:02:20.083Z,17.15
2019-05-10T17:04:48.715Z,17.29
2019-05-10T17:07:19.041Z,17.49
2019-05-10T17:09:49.602Z,17.40
2019-05-10T17:12:22.078Z,17.30
2019-05-10T17:14:50.589Z,17.09
2019-05-10T17:17:18.495Z,16.85
2019-05-10T17:19:47.024Z,16.95
2019-05-10T17:22:15.622Z,16.82
2019-05-10T17:24:44.158Z,17.01
2019-05-10T17:27:12.670Z,16.86
2019-05-10T17:29:44.453Z,16.93
2019-05-10T17:32:11.416Z,17.00
2019-05-10T17:34:42.380Z,17.08
2019-05-10T17:37:29.657Z,16.99
2019-05-10T17:40:04.773Z,16.79
2019-05-10T17:42:51.879Z,16.73
2019-05-10T17:48:21.379Z,16.54
2019-05-10T17:50:49.884Z,16.45
2019-05-10T17:53:18.382Z,16.15
2019-05-10T17:55:49.364Z,16.26
2019-05-10T17:58:17.383Z,16.16
2019-05-10T18:00:46.746Z,16.20
2019-05-10T18:03:15.289Z,16.18
2019-05-10T18:05:46.676Z,16.14
2019-05-10T18:08:14.097Z,16.20
2019-05-10T18:10:42.584Z,16.20
2019-05-10T18:13:11.167Z,16.28
2019-05-10T18:15:39.731Z,16.27
2019-05-10T18:18:08.246Z,16.14
2019-05-10T18:20:42.205Z,16.17
2019-05-10T18:23:07.039Z,16.18
2019-05-10T18:25:35.598Z,16.19
2019-05-10T18:28:04.825Z,16.15
2019-05-10T18:30:33.313Z,16.01
2019-05-10T18:33:06.692Z,15.76
2019-05-10T18:35:32.343Z,15.68
2019-05-10T18:38:01.018Z,15.73
2019-05-10T18:40:31.831Z,15.71
2019-05-10T18:43:03.908Z,15.61
2019-05-10T18:45:30.175Z,15.40
2019-05-10T18:47:58.686Z,15.23
2019-05-10T18:50:27.234Z,15.24
2019-05-10T18:52:55.776Z,15.07
2019-05-10T18:55:24.352Z,15.23
2019-05-10T18:57:52.854Z,15.30
2019-05-10T19:00:22.899Z,15.11
2019-05-10T19:02:55.167Z,15.03
2019-05-10T19:05:25.065Z,15.03
2019-05-10T19:08:03.151Z,14.99
2019-05-10T19:10:22.838Z,15.02
2019-05-10T19:12:59.777Z,15.02
2019-05-10T19:15:21.588Z,15.00
2019-05-10T19:17:50.115Z,14.82
2019-05-10T19:20:18.719Z,13.97
2019-05-10T19:22:47.247Z,13.43
2019-05-10T19:25:15.828Z,13.41
2019-05-10T19:27:50.223Z,13.65
2019-05-10T19:30:20.206Z,14.01
2019-05-10T19:32:50.980Z,14.31
2019-05-10T19:35:16.699Z,14.50
2019-05-10T19:37:45.188Z,14.65
2019-05-10T19:40:14.368Z,14.76
2019-05-10T19:42:44.850Z,14.63
2019-05-10T19:45:19.182Z,14.59
2019-05-10T19:47:43.530Z,14.38
2019-05-10T19:50:12.768Z,14.26
2019-05-10T19:52:41.325Z,14.31
2019-05-10T19:55:12.875Z,14.33
2019-05-10T19:57:40.395Z,14.24
2019-05-10T20:00:09.633Z,14.42
2019-05-10T20:02:38.238Z,14.33
2019-05-10T20:05:10.049Z,14.32
2019-05-10T20:07:46.008Z,14.13
2019-05-10T20:10:09.071Z,13.92
2019-05-10T20:12:37.610Z,13.64
2019-05-10T20:15:07.647Z,13.73
2019-05-10T20:17:36.557Z,13.84
2019-05-10T20:20:08.580Z,13.73
2019-05-10T20:22:37.131Z,13.55
2019-05-10T20:25:09.531Z,13.74
2019-05-10T20:27:38.057Z,13.71
2019-05-10T20:30:07.600Z,13.45
2019-05-10T20:32:36.113Z,13.53
2019-05-10T20:35:06.917Z,13.91
2019-05-10T20:37:35.520Z,14.04
2019-05-10T20:40:06.540Z,14.16
2019-05-10T20:42:35.131Z,14.09
2019-05-10T20:45:08.606Z,14.11
2019-05-10T20:47:34.005Z,13.67
2019-05-10T20:50:02.484Z,13.52
2019-05-10T20:52:30.981Z,13.38
2019-05-10T20:54:59.536Z,13.52
2019-05-10T20:57:28.068Z,13.72
2019-05-10T20:59:56.558Z,13.89
2019-05-10T21:02:25.095Z,13.36
2019-05-10T21:04:53.588Z,13.30
2019-05-10T21:07:22.077Z,13.16
2019-05-10T21:09:50.601Z,13.11
2019-05-10T21:12:19.091Z,13.15
2019-05-10T21:14:48.201Z,12.96
2019-05-10T21:17:16.871Z,13.03
2019-05-10T21:19:45.387Z,12.95
2019-05-10T21:22:13.873Z,12.75
2019-05-10T21:24:42.399Z,12.99
2019-05-10T21:27:10.878Z,13.48
2019-05-10T21:29:39.422Z,13.56
2019-05-10T21:32:08.057Z,13.59
2019-05-10T21:34:36.571Z,13.63
2019-05-10T21:37:05.133Z,13.53
2019-05-10T21:39:33.885Z,13.60
2019-05-10T21:42:02.382Z,13.71
2019-05-10T21:44:30.874Z,13.81
2019-05-10T21:46:59.384Z,14.04
2019-05-10T21:49:29.280Z,14.23
2019-05-10T21:51:57.782Z,14.41
2019-05-10T21:54:26.276Z,14.39
2019-05-10T21:56:54.808Z,14.41
2019-05-10T21:59:23.382Z,14.37
2019-05-10T22:01:51.964Z,14.50
2019-05-10T22:04:20.482Z,14.42
2019-05-10T22:06:48.961Z,14.46
2019-05-10T22:09:17.556Z,14.44
2019-05-10T22:11:46.156Z,14.54
2019-05-10T22:14:14.679Z,14.38
2019-05-10T22:16:43.170Z,14.23
2019-05-10T22:19:11.759Z,14.39
2019-05-10T22:21:40.282Z,14.44
2019-05-10T22:24:08.782Z,14.51
2019-05-10T22:26:37.351Z,14.48
2019-05-10T22:29:05.843Z,14.41
2019-05-10T22:31:34.343Z,14.27
2019-05-10T22:34:02.865Z,14.21
2019-05-10T22:36:31.351Z,14.23
2019-05-10T22:39:07.113Z,14.17
2019-05-10T22:41:30.254Z,13.97
2019-05-10T22:43:58.789Z,13.85
2019-05-10T22:46:27.256Z,13.96
2019-05-10T22:48:55.775Z,13.83
2019-05-10T22:51:24.357Z,13.76
2019-05-10T22:53:59.698Z,13.77
2019-05-10T22:56:23.115Z,13.71
2019-05-10T22:58:51.641Z,13.71
2019-05-10T23:01:20.127Z,13.64
2019-05-10T23:03:48.653Z,13.73
2019-05-10T23:06:17.137Z,13.51
2019-05-10T23:08:45.647Z,13.76
2019-05-10T23:11:14.135Z,13.81
2019-05-10T23:13:42.682Z,13.70
2019-05-10T23:16:11.165Z,13.68
2019-05-10T23:18:39.652Z,13.74
2019-05-10T23:21:08.183Z,13.78
2019-05-10T23:23:36.687Z,13.83
2019-05-10T23:26:05.205Z,13.83
2019-05-10T23:28:33.690Z,13.87
2019-05-10T23:31:02.209Z,14.00
2019-05-10T23:33:30.699Z,14.02
2019-05-10T23:35:59.207Z,14.02
2019-05-10T23:38:27.706Z,14.01
2019-05-10T23:40:56.230Z,13.55
2019-05-10T23:43:24.715Z,13.18
2019-05-10T23:45:53.200Z,12.54
2019-05-10T23:48:21.716Z,12.37
2019-05-10T23:50:50.215Z,12.74
2019-05-10T23:53:18.700Z,12.61
2019-05-10T23:55:47.217Z,12.69
2019-05-10T23:58:15.743Z,12.52
